sensor_id;sensor_type;location;lat;lon;timestamp;P1;durP1;ratioP1;P2;durP2;ratioP2
77591;SDS011;66891;46.884;17.436;2023-05-07T00:01:31;17.77;;;9.50;;
77591;SDS011;66891;46.884;17.436;2023-05-07T00:04:00;16.48;;;9.30;;
77591;SDS011;66891;46.884;17.436;2023-05-07T00:06:28;16.27;;;9.38;;
77591;SDS011;66891;46.884;17.436;2023-05-07T00:08:56;14.95;;;8.65;;
77591;SDS011;66891;46.884;17.436;2023-05-07T00:11:23;16.52;;;9.20;;
77591;SDS011;66891;46.884;17.436;2023-05-07T00:13:51;16.73;;;9.17;;
77591;SDS011;66891;46.884;17.436;2023-05-07T00:16:18;16.40;;;9.48;;
77591;SDS011;66891;46.884;17.436;2023-05-07T00:18:46;16.05;;;8.80;;
77591;SDS011;66891;46.884;17.436;2023-05-07T00:21:14;17.70;;;10.02;;
77591;SDS011;66891;46.884;17.436;2023-05-07T00:23:42;17.45;;;9.65;;
77591;SDS011;66891;46.884;17.436;2023-05-07T00:26:09;16.87;;;9.50;;
77591;SDS011;66891;46.884;17.436;2023-05-07T00:28:37;18.08;;;9.40;;
77591;SDS011;66891;46.884;17.436;2023-05-07T00:31:04;16.67;;;8.65;;
77591;SDS011;66891;46.884;17.436;2023-05-07T00:33:31;14.80;;;8.88;;
77591;SDS011;66891;46.884;17.436;2023-05-07T00:35:59;14.48;;;8.82;;
77591;SDS011;66891;46.884;17.436;2023-05-07T00:38:30;16.87;;;9.07;;
77591;SDS011;66891;46.884;17.436;2023-05-07T00:40:58;18.67;;;10.15;;
77591;SDS011;66891;46.884;17.436;2023-05-07T00:43:25;16.45;;;9.50;;
77591;SDS011;66891;46.884;17.436;2023-05-07T00:45:54;16.48;;;9.55;;
77591;SDS011;66891;46.884;17.436;2023-05-07T00:48:21;16.45;;;9.60;;
77591;SDS011;66891;46.884;17.436;2023-05-07T00:50:50;16.73;;;9.53;;
77591;SDS011;66891;46.884;17.436;2023-05-07T00:53:18;19.23;;;10.10;;
77591;SDS011;66891;46.884;17.436;2023-05-07T00:55:47;19.67;;;9.82;;
77591;SDS011;66891;46.884;17.436;2023-05-07T00:58:15;18.00;;;10.57;;
77591;SDS011;66891;46.884;17.436;2023-05-07T01:00:42;18.25;;;10.25;;
77591;SDS011;66891;46.884;17.436;2023-05-07T01:03:10;17.60;;;10.10;;
77591;SDS011;66891;46.884;17.436;2023-05-07T01:05:37;17.70;;;9.80;;
77591;SDS011;66891;46.884;17.436;2023-05-07T01:08:05;17.92;;;9.18;;
77591;SDS011;66891;46.884;17.436;2023-05-07T01:10:33;16.33;;;9.15;;
77591;SDS011;66891;46.884;17.436;2023-05-07T01:13:02;16.88;;;9.45;;
77591;SDS011;66891;46.884;17.436;2023-05-07T01:15:30;18.40;;;9.83;;
77591;SDS011;66891;46.884;17.436;2023-05-07T01:17:57;18.60;;;10.60;;
77591;SDS011;66891;46.884;17.436;2023-05-07T01:20:25;20.42;;;10.63;;
77591;SDS011;66891;46.884;17.436;2023-05-07T01:22:54;19.23;;;10.38;;
77591;SDS011;66891;46.884;17.436;2023-05-07T01:25:22;19.83;;;10.48;;
77591;SDS011;66891;46.884;17.436;2023-05-07T01:27:50;17.80;;;9.90;;
77591;SDS011;66891;46.884;17.436;2023-05-07T01:30:18;17.92;;;9.38;;
77591;SDS011;66891;46.884;17.436;2023-05-07T01:32:49;19.70;;;9.95;;
77591;SDS011;66891;46.884;17.436;2023-05-07T01:35:19;23.88;;;11.10;;
77591;SDS011;66891;46.884;17.436;2023-05-07T01:37:49;20.98;;;10.77;;
77591;SDS011;66891;46.884;17.436;2023-05-07T01:40:18;21.40;;;12.10;;
77591;SDS011;66891;46.884;17.436;2023-05-07T01:42:45;22.77;;;12.32;;
77591;SDS011;66891;46.884;17.436;2023-05-07T01:45:14;22.90;;;12.70;;
77591;SDS011;66891;46.884;17.436;2023-05-07T01:47:42;23.85;;;12.40;;
77591;SDS011;66891;46.884;17.436;2023-05-07T01:50:11;22.88;;;13.27;;
77591;SDS011;66891;46.884;17.436;2023-05-07T01:52:39;21.87;;;12.23;;
77591;SDS011;66891;46.884;17.436;2023-05-07T01:55:07;21.60;;;11.98;;
77591;SDS011;66891;46.884;17.436;2023-05-07T01:57:37;23.60;;;12.48;;
77591;SDS011;66891;46.884;17.436;2023-05-07T02:00:05;23.05;;;13.13;;
77591;SDS011;66891;46.884;17.436;2023-05-07T02:02:33;26.92;;;13.65;;
77591;SDS011;66891;46.884;17.436;2023-05-07T02:05:00;26.00;;;13.33;;
77591;SDS011;66891;46.884;17.436;2023-05-07T02:07:28;26.05;;;13.05;;
77591;SDS011;66891;46.884;17.436;2023-05-07T02:09:55;25.50;;;13.05;;
77591;SDS011;66891;46.884;17.436;2023-05-07T02:12:23;24.67;;;13.98;;
77591;SDS011;66891;46.884;17.436;2023-05-07T02:14:52;26.63;;;13.55;;
77591;SDS011;66891;46.884;17.436;2023-05-07T02:17:19;25.03;;;14.20;;
77591;SDS011;66891;46.884;17.436;2023-05-07T02:19:46;25.55;;;13.43;;
77591;SDS011;66891;46.884;17.436;2023-05-07T02:22:14;25.83;;;13.75;;
77591;SDS011;66891;46.884;17.436;2023-05-07T02:24:42;25.10;;;13.40;;
77591;SDS011;66891;46.884;17.436;2023-05-07T02:27:09;25.25;;;13.73;;
77591;SDS011;66891;46.884;17.436;2023-05-07T02:29:36;24.80;;;12.73;;
77591;SDS011;66891;46.884;17.436;2023-05-07T02:32:05;23.48;;;13.05;;
77591;SDS011;66891;46.884;17.436;2023-05-07T02:34:32;23.58;;;13.60;;
77591;SDS011;66891;46.884;17.436;2023-05-07T02:37:00;22.35;;;12.73;;
77591;SDS011;66891;46.884;17.436;2023-05-07T02:39:27;23.70;;;12.95;;
77591;SDS011;66891;46.884;17.436;2023-05-07T02:41:55;26.07;;;14.20;;
77591;SDS011;66891;46.884;17.436;2023-05-07T02:44:22;22.92;;;13.30;;
77591;SDS011;66891;46.884;17.436;2023-05-07T02:46:49;25.23;;;13.95;;
77591;SDS011;66891;46.884;17.436;2023-05-07T02:49:18;23.92;;;12.85;;
77591;SDS011;66891;46.884;17.436;2023-05-07T02:51:45;23.77;;;13.07;;
77591;SDS011;66891;46.884;17.436;2023-05-07T02:54:12;24.07;;;13.20;;
77591;SDS011;66891;46.884;17.436;2023-05-07T02:56:40;23.67;;;13.30;;
77591;SDS011;66891;46.884;17.436;2023-05-07T02:59:07;22.35;;;12.48;;
77591;SDS011;66891;46.884;17.436;2023-05-07T03:01:34;22.02;;;12.20;;
77591;SDS011;66891;46.884;17.436;2023-05-07T03:04:02;24.08;;;13.10;;
77591;SDS011;66891;46.884;17.436;2023-05-07T03:06:31;22.53;;;12.37;;
77591;SDS011;66891;46.884;17.436;2023-05-07T03:08:59;21.75;;;13.30;;
77591;SDS011;66891;46.884;17.436;2023-05-07T03:11:26;22.23;;;12.38;;
77591;SDS011;66891;46.884;17.436;2023-05-07T03:13:55;22.80;;;13.20;;
77591;SDS011;66891;46.884;17.436;2023-05-07T03:16:22;22.25;;;12.98;;
77591;SDS011;66891;46.884;17.436;2023-05-07T03:18:50;24.43;;;13.00;;
77591;SDS011;66891;46.884;17.436;2023-05-07T03:21:17;22.75;;;13.38;;
77591;SDS011;66891;46.884;17.436;2023-05-07T03:23:46;23.55;;;13.43;;
77591;SDS011;66891;46.884;17.436;2023-05-07T03:26:14;24.58;;;13.13;;
77591;SDS011;66891;46.884;17.436;2023-05-07T03:28:41;22.63;;;13.43;;
77591;SDS011;66891;46.884;17.436;2023-05-07T03:31:08;23.57;;;13.30;;
77591;SDS011;66891;46.884;17.436;2023-05-07T03:33:38;21.95;;;12.50;;
77591;SDS011;66891;46.884;17.436;2023-05-07T03:36:16;23.40;;;12.13;;
77591;SDS011;66891;46.884;17.436;2023-05-07T03:38:44;24.00;;;12.85;;
77591;SDS011;66891;46.884;17.436;2023-05-07T03:41:13;24.42;;;13.00;;
77591;SDS011;66891;46.884;17.436;2023-05-07T03:43:40;21.43;;;11.97;;
77591;SDS011;66891;46.884;17.436;2023-05-07T03:46:07;24.08;;;12.50;;
77591;SDS011;66891;46.884;17.436;2023-05-07T03:48:35;22.15;;;12.52;;
77591;SDS011;66891;46.884;17.436;2023-05-07T03:51:03;23.80;;;12.80;;
77591;SDS011;66891;46.884;17.436;2023-05-07T03:53:30;20.75;;;12.05;;
77591;SDS011;66891;46.884;17.436;2023-05-07T03:55:57;21.80;;;12.60;;
77591;SDS011;66891;46.884;17.436;2023-05-07T03:58:26;21.88;;;12.25;;
77591;SDS011;66891;46.884;17.436;2023-05-07T04:00:53;22.30;;;12.43;;
77591;SDS011;66891;46.884;17.436;2023-05-07T04:03:21;20.98;;;11.77;;
77591;SDS011;66891;46.884;17.436;2023-05-07T04:05:48;21.05;;;12.13;;
77591;SDS011;66891;46.884;17.436;2023-05-07T04:08:16;26.63;;;15.37;;
77591;SDS011;66891;46.884;17.436;2023-05-07T04:10:43;27.15;;;15.70;;
77591;SDS011;66891;46.884;17.436;2023-05-07T04:13:10;24.92;;;14.00;;
77591;SDS011;66891;46.884;17.436;2023-05-07T04:15:39;21.40;;;12.10;;
77591;SDS011;66891;46.884;17.436;2023-05-07T04:18:06;20.90;;;12.13;;
77591;SDS011;66891;46.884;17.436;2023-05-07T04:20:34;22.57;;;11.93;;
77591;SDS011;66891;46.884;17.436;2023-05-07T04:23:03;20.05;;;11.85;;
77591;SDS011;66891;46.884;17.436;2023-05-07T04:25:30;20.08;;;11.63;;
77591;SDS011;66891;46.884;17.436;2023-05-07T04:27:57;18.50;;;11.48;;
77591;SDS011;66891;46.884;17.436;2023-05-07T04:30:25;19.25;;;11.70;;
77591;SDS011;66891;46.884;17.436;2023-05-07T04:32:54;20.97;;;11.37;;
77591;SDS011;66891;46.884;17.436;2023-05-07T04:35:21;19.50;;;11.73;;
77591;SDS011;66891;46.884;17.436;2023-05-07T04:37:48;19.63;;;11.82;;
77591;SDS011;66891;46.884;17.436;2023-05-07T04:40:16;22.48;;;12.27;;
77591;SDS011;66891;46.884;17.436;2023-05-07T04:42:43;19.92;;;11.35;;
77591;SDS011;66891;46.884;17.436;2023-05-07T04:45:10;19.77;;;11.93;;
77591;SDS011;66891;46.884;17.436;2023-05-07T04:47:39;21.80;;;12.43;;
77591;SDS011;66891;46.884;17.436;2023-05-07T04:50:08;20.80;;;12.00;;
77591;SDS011;66891;46.884;17.436;2023-05-07T04:52:36;20.15;;;11.50;;
77591;SDS011;66891;46.884;17.436;2023-05-07T04:55:04;18.63;;;11.00;;
77591;SDS011;66891;46.884;17.436;2023-05-07T04:57:32;19.43;;;11.43;;
77591;SDS011;66891;46.884;17.436;2023-05-07T05:00:00;20.95;;;11.55;;
77591;SDS011;66891;46.884;17.436;2023-05-07T05:02:27;21.20;;;12.32;;
77591;SDS011;66891;46.884;17.436;2023-05-07T05:04:54;20.02;;;12.25;;
77591;SDS011;66891;46.884;17.436;2023-05-07T05:07:23;20.20;;;11.95;;
77591;SDS011;66891;46.884;17.436;2023-05-07T05:09:50;22.93;;;13.60;;
77591;SDS011;66891;46.884;17.436;2023-05-07T05:12:17;22.30;;;13.50;;
77591;SDS011;66891;46.884;17.436;2023-05-07T05:14:45;21.10;;;12.52;;
77591;SDS011;66891;46.884;17.436;2023-05-07T05:17:12;20.55;;;11.57;;
77591;SDS011;66891;46.884;17.436;2023-05-07T05:19:39;21.13;;;12.00;;
77591;SDS011;66891;46.884;17.436;2023-05-07T05:22:07;20.03;;;12.30;;
77591;SDS011;66891;46.884;17.436;2023-05-07T05:24:35;19.10;;;12.15;;
77591;SDS011;66891;46.884;17.436;2023-05-07T05:27:03;20.75;;;12.52;;
77591;SDS011;66891;46.884;17.436;2023-05-07T05:29:30;20.60;;;12.57;;
77591;SDS011;66891;46.884;17.436;2023-05-07T05:32:00;22.40;;;13.38;;
77591;SDS011;66891;46.884;17.436;2023-05-07T05:34:28;24.30;;;14.53;;
77591;SDS011;66891;46.884;17.436;2023-05-07T05:36:55;24.50;;;14.50;;
77591;SDS011;66891;46.884;17.436;2023-05-07T05:39:23;23.67;;;13.77;;
77591;SDS011;66891;46.884;17.436;2023-05-07T05:41:52;21.95;;;13.07;;
77591;SDS011;66891;46.884;17.436;2023-05-07T05:44:19;24.33;;;13.48;;
77591;SDS011;66891;46.884;17.436;2023-05-07T05:46:46;21.77;;;13.20;;
77591;SDS011;66891;46.884;17.436;2023-05-07T05:49:14;21.67;;;13.38;;
77591;SDS011;66891;46.884;17.436;2023-05-07T05:51:41;21.73;;;13.48;;
77591;SDS011;66891;46.884;17.436;2023-05-07T05:54:08;21.05;;;13.13;;
77591;SDS011;66891;46.884;17.436;2023-05-07T05:56:36;24.42;;;13.70;;
77591;SDS011;66891;46.884;17.436;2023-05-07T05:59:05;22.60;;;13.40;;
77591;SDS011;66891;46.884;17.436;2023-05-07T06:01:33;21.52;;;13.30;;
77591;SDS011;66891;46.884;17.436;2023-05-07T06:04:00;19.45;;;11.70;;
77591;SDS011;66891;46.884;17.436;2023-05-07T06:06:27;19.58;;;12.15;;
77591;SDS011;66891;46.884;17.436;2023-05-07T06:08:55;21.27;;;12.68;;
77591;SDS011;66891;46.884;17.436;2023-05-07T06:11:22;19.97;;;12.10;;
77591;SDS011;66891;46.884;17.436;2023-05-07T06:13:49;19.60;;;11.65;;
77591;SDS011;66891;46.884;17.436;2023-05-07T06:16:18;19.35;;;12.20;;
77591;SDS011;66891;46.884;17.436;2023-05-07T06:18:45;19.63;;;11.90;;
77591;SDS011;66891;46.884;17.436;2023-05-07T06:21:13;20.85;;;12.88;;
77591;SDS011;66891;46.884;17.436;2023-05-07T06:23:41;18.43;;;11.00;;
77591;SDS011;66891;46.884;17.436;2023-05-07T06:26:09;19.70;;;11.90;;
77591;SDS011;66891;46.884;17.436;2023-05-07T06:28:36;18.33;;;10.63;;
77591;SDS011;66891;46.884;17.436;2023-05-07T06:31:13;19.95;;;11.30;;
77591;SDS011;66891;46.884;17.436;2023-05-07T06:33:43;16.98;;;10.18;;
77591;SDS011;66891;46.884;17.436;2023-05-07T06:36:11;17.53;;;10.50;;
77591;SDS011;66891;46.884;17.436;2023-05-07T06:38:39;18.60;;;11.00;;
77591;SDS011;66891;46.884;17.436;2023-05-07T06:41:07;17.33;;;10.63;;
77591;SDS011;66891;46.884;17.436;2023-05-07T06:43:34;16.10;;;10.25;;
77591;SDS011;66891;46.884;17.436;2023-05-07T06:46:02;18.20;;;10.90;;
77591;SDS011;66891;46.884;17.436;2023-05-07T06:48:29;16.47;;;9.90;;
77591;SDS011;66891;46.884;17.436;2023-05-07T06:50:58;16.67;;;9.43;;
77591;SDS011;66891;46.884;17.436;2023-05-07T06:53:26;15.05;;;8.90;;
77591;SDS011;66891;46.884;17.436;2023-05-07T06:55:55;14.02;;;8.50;;
77591;SDS011;66891;46.884;17.436;2023-05-07T06:58:22;13.63;;;8.20;;
77591;SDS011;66891;46.884;17.436;2023-05-07T07:00:49;12.33;;;7.20;;
77591;SDS011;66891;46.884;17.436;2023-05-07T07:03:16;12.15;;;6.25;;
77591;SDS011;66891;46.884;17.436;2023-05-07T07:05:44;14.18;;;6.57;;
77591;SDS011;66891;46.884;17.436;2023-05-07T07:08:12;11.10;;;6.28;;
77591;SDS011;66891;46.884;17.436;2023-05-07T07:10:40;12.63;;;5.57;;
77591;SDS011;66891;46.884;17.436;2023-05-07T07:13:07;10.27;;;5.93;;
77591;SDS011;66891;46.884;17.436;2023-05-07T07:15:35;10.82;;;5.60;;
77591;SDS011;66891;46.884;17.436;2023-05-07T07:18:02;12.43;;;6.10;;
77591;SDS011;66891;46.884;17.436;2023-05-07T07:20:30;10.55;;;5.80;;
77591;SDS011;66891;46.884;17.436;2023-05-07T07:22:57;11.90;;;5.43;;
77591;SDS011;66891;46.884;17.436;2023-05-07T07:25:26;9.47;;;4.80;;
77591;SDS011;66891;46.884;17.436;2023-05-07T07:27:53;10.43;;;5.20;;
77591;SDS011;66891;46.884;17.436;2023-05-07T07:30:20;9.00;;;4.55;;
77591;SDS011;66891;46.884;17.436;2023-05-07T07:32:49;8.90;;;4.97;;
77591;SDS011;66891;46.884;17.436;2023-05-07T07:35:18;8.75;;;4.47;;
77591;SDS011;66891;46.884;17.436;2023-05-07T07:37:45;9.77;;;4.17;;
77591;SDS011;66891;46.884;17.436;2023-05-07T07:40:13;8.73;;;4.20;;
77591;SDS011;66891;46.884;17.436;2023-05-07T07:42:42;7.88;;;3.72;;
77591;SDS011;66891;46.884;17.436;2023-05-07T07:45:10;7.97;;;3.50;;
77591;SDS011;66891;46.884;17.436;2023-05-07T07:47:37;8.13;;;3.65;;
77591;SDS011;66891;46.884;17.436;2023-05-07T07:50:05;8.97;;;4.37;;
77591;SDS011;66891;46.884;17.436;2023-05-07T07:52:33;6.90;;;3.50;;
77591;SDS011;66891;46.884;17.436;2023-05-07T07:55:02;7.40;;;3.65;;
77591;SDS011;66891;46.884;17.436;2023-05-07T07:57:30;7.78;;;3.40;;
77591;SDS011;66891;46.884;17.436;2023-05-07T07:59:58;7.55;;;2.88;;
77591;SDS011;66891;46.884;17.436;2023-05-07T08:02:26;6.50;;;2.83;;
77591;SDS011;66891;46.884;17.436;2023-05-07T08:04:53;6.18;;;2.28;;
77591;SDS011;66891;46.884;17.436;2023-05-07T08:07:21;7.93;;;3.55;;
77591;SDS011;66891;46.884;17.436;2023-05-07T08:09:49;7.80;;;3.85;;
77591;SDS011;66891;46.884;17.436;2023-05-07T08:12:16;7.45;;;3.17;;
77591;SDS011;66891;46.884;17.436;2023-05-07T08:14:44;8.07;;;3.30;;
77591;SDS011;66891;46.884;17.436;2023-05-07T08:17:12;7.30;;;3.30;;
77591;SDS011;66891;46.884;17.436;2023-05-07T08:19:42;7.72;;;3.97;;
77591;SDS011;66891;46.884;17.436;2023-05-07T08:22:10;7.68;;;3.40;;
77591;SDS011;66891;46.884;17.436;2023-05-07T08:24:37;7.38;;;3.45;;
77591;SDS011;66891;46.884;17.436;2023-05-07T08:27:04;6.80;;;3.30;;
77591;SDS011;66891;46.884;17.436;2023-05-07T08:29:32;8.70;;;3.17;;
77591;SDS011;66891;46.884;17.436;2023-05-07T08:31:59;6.60;;;2.90;;
77591;SDS011;66891;46.884;17.436;2023-05-07T08:34:28;6.68;;;2.83;;
77591;SDS011;66891;46.884;17.436;2023-05-07T08:36:55;7.68;;;3.17;;
77591;SDS011;66891;46.884;17.436;2023-05-07T08:39:23;7.07;;;3.10;;
77591;SDS011;66891;46.884;17.436;2023-05-07T08:41:50;6.95;;;3.00;;
77591;SDS011;66891;46.884;17.436;2023-05-07T08:44:22;7.13;;;2.85;;
77591;SDS011;66891;46.884;17.436;2023-05-07T08:46:55;7.55;;;3.10;;
77591;SDS011;66891;46.884;17.436;2023-05-07T08:49:23;6.30;;;2.50;;
77591;SDS011;66891;46.884;17.436;2023-05-07T08:51:52;6.73;;;2.83;;
77591;SDS011;66891;46.884;17.436;2023-05-07T08:54:19;6.38;;;2.42;;
77591;SDS011;66891;46.884;17.436;2023-05-07T08:56:48;7.07;;;2.80;;
77591;SDS011;66891;46.884;17.436;2023-05-07T08:59:15;6.97;;;2.70;;
77591;SDS011;66891;46.884;17.436;2023-05-07T09:01:43;5.75;;;2.20;;
77591;SDS011;66891;46.884;17.436;2023-05-07T09:04:10;6.73;;;2.60;;
77591;SDS011;66891;46.884;17.436;2023-05-07T09:06:39;7.25;;;2.25;;
77591;SDS011;66891;46.884;17.436;2023-05-07T09:09:10;6.70;;;1.95;;
77591;SDS011;66891;46.884;17.436;2023-05-07T09:11:41;6.57;;;2.38;;
77591;SDS011;66891;46.884;17.436;2023-05-07T09:14:09;5.72;;;2.20;;
77591;SDS011;66891;46.884;17.436;2023-05-07T09:16:36;5.73;;;2.20;;
77591;SDS011;66891;46.884;17.436;2023-05-07T09:19:03;6.05;;;2.20;;
77591;SDS011;66891;46.884;17.436;2023-05-07T09:21:31;5.43;;;1.90;;
77591;SDS011;66891;46.884;17.436;2023-05-07T09:23:59;6.13;;;2.15;;
77591;SDS011;66891;46.884;17.436;2023-05-07T09:26:27;6.45;;;2.20;;
77591;SDS011;66891;46.884;17.436;2023-05-07T09:28:55;5.77;;;2.10;;
77591;SDS011;66891;46.884;17.436;2023-05-07T09:31:22;5.25;;;2.10;;
77591;SDS011;66891;46.884;17.436;2023-05-07T09:33:52;5.40;;;2.25;;
77591;SDS011;66891;46.884;17.436;2023-05-07T09:36:20;5.05;;;1.70;;
77591;SDS011;66891;46.884;17.436;2023-05-07T09:38:47;6.47;;;2.03;;
77591;SDS011;66891;46.884;17.436;2023-05-07T09:41:18;5.23;;;2.10;;
77591;SDS011;66891;46.884;17.436;2023-05-07T09:43:47;6.50;;;2.47;;
77591;SDS011;66891;46.884;17.436;2023-05-07T09:46:30;5.20;;;2.10;;
77591;SDS011;66891;46.884;17.436;2023-05-07T09:49:00;4.97;;;2.00;;
77591;SDS011;66891;46.884;17.436;2023-05-07T09:51:29;6.13;;;2.10;;
77591;SDS011;66891;46.884;17.436;2023-05-07T09:54:00;5.70;;;1.90;;
77591;SDS011;66891;46.884;17.436;2023-05-07T09:56:30;6.85;;;2.10;;
77591;SDS011;66891;46.884;17.436;2023-05-07T09:59:00;5.57;;;2.03;;
77591;SDS011;66891;46.884;17.436;2023-05-07T10:01:29;5.72;;;2.13;;
77591;SDS011;66891;46.884;17.436;2023-05-07T10:03:58;7.85;;;2.35;;
77591;SDS011;66891;46.884;17.436;2023-05-07T10:06:26;5.70;;;2.20;;
77591;SDS011;66891;46.884;17.436;2023-05-07T10:08:54;5.40;;;2.20;;
77591;SDS011;66891;46.884;17.436;2023-05-07T10:11:23;5.90;;;2.55;;
77591;SDS011;66891;46.884;17.436;2023-05-07T10:13:50;5.32;;;2.42;;
77591;SDS011;66891;46.884;17.436;2023-05-07T10:16:20;6.28;;;2.60;;
77591;SDS011;66891;46.884;17.436;2023-05-07T10:18:47;5.10;;;2.10;;
77591;SDS011;66891;46.884;17.436;2023-05-07T10:21:18;6.47;;;2.20;;
77591;SDS011;66891;46.884;17.436;2023-05-07T10:23:48;5.70;;;2.15;;
77591;SDS011;66891;46.884;17.436;2023-05-07T10:26:18;5.97;;;2.40;;
77591;SDS011;66891;46.884;17.436;2023-05-07T10:28:50;6.40;;;2.60;;
77591;SDS011;66891;46.884;17.436;2023-05-07T10:31:36;6.77;;;2.50;;
77591;SDS011;66891;46.884;17.436;2023-05-07T10:34:23;5.90;;;2.22;;
77591;SDS011;66891;46.884;17.436;2023-05-07T10:36:53;5.63;;;2.20;;
77591;SDS011;66891;46.884;17.436;2023-05-07T10:39:22;5.68;;;2.50;;
77591;SDS011;66891;46.884;17.436;2023-05-07T10:41:50;6.32;;;2.30;;
77591;SDS011;66891;46.884;17.436;2023-05-07T10:44:25;5.87;;;2.20;;
77591;SDS011;66891;46.884;17.436;2023-05-07T10:47:07;5.13;;;2.17;;
77591;SDS011;66891;46.884;17.436;2023-05-07T10:49:37;5.40;;;2.03;;
77591;SDS011;66891;46.884;17.436;2023-05-07T10:52:37;6.20;;;2.90;;
77591;SDS011;66891;46.884;17.436;2023-05-07T10:55:19;6.25;;;2.70;;
77591;SDS011;66891;46.884;17.436;2023-05-07T10:57:48;6.07;;;2.50;;
77591;SDS011;66891;46.884;17.436;2023-05-07T11:03:11;5.40;;;2.40;;
77591;SDS011;66891;46.884;17.436;2023-05-07T11:05:39;5.47;;;2.25;;
77591;SDS011;66891;46.884;17.436;2023-05-07T11:08:07;6.63;;;2.67;;
77591;SDS011;66891;46.884;17.436;2023-05-07T11:16:17;5.45;;;2.25;;
77591;SDS011;66891;46.884;17.436;2023-05-07T11:18:48;5.70;;;2.60;;
77591;SDS011;66891;46.884;17.436;2023-05-07T11:21:31;5.68;;;2.20;;
77591;SDS011;66891;46.884;17.436;2023-05-07T11:24:00;4.97;;;1.80;;
77591;SDS011;66891;46.884;17.436;2023-05-07T11:26:29;5.45;;;2.30;;
77591;SDS011;66891;46.884;17.436;2023-05-07T11:28:57;6.43;;;2.35;;
77591;SDS011;66891;46.884;17.436;2023-05-07T11:31:27;7.40;;;3.15;;
77591;SDS011;66891;46.884;17.436;2023-05-07T11:33:57;6.72;;;2.40;;
77591;SDS011;66891;46.884;17.436;2023-05-07T11:36:25;6.07;;;2.77;;
77591;SDS011;66891;46.884;17.436;2023-05-07T11:38:57;6.47;;;3.15;;
77591;SDS011;66891;46.884;17.436;2023-05-07T11:41:32;6.45;;;3.05;;
77591;SDS011;66891;46.884;17.436;2023-05-07T11:44:00;5.82;;;2.17;;
77591;SDS011;66891;46.884;17.436;2023-05-07T11:46:28;5.90;;;2.53;;
77591;SDS011;66891;46.884;17.436;2023-05-07T11:48:56;6.93;;;2.63;;
77591;SDS011;66891;46.884;17.436;2023-05-07T11:51:25;5.60;;;2.22;;
77591;SDS011;66891;46.884;17.436;2023-05-07T11:53:53;5.47;;;2.50;;
77591;SDS011;66891;46.884;17.436;2023-05-07T11:56:21;6.40;;;3.00;;
77591;SDS011;66891;46.884;17.436;2023-05-07T11:58:48;5.78;;;2.70;;
77591;SDS011;66891;46.884;17.436;2023-05-07T12:01:16;5.43;;;2.47;;
77591;SDS011;66891;46.884;17.436;2023-05-07T12:03:44;5.55;;;2.55;;
77591;SDS011;66891;46.884;17.436;2023-05-07T12:06:15;5.80;;;2.45;;
77591;SDS011;66891;46.884;17.436;2023-05-07T12:08:43;5.80;;;2.83;;
77591;SDS011;66891;46.884;17.436;2023-05-07T12:11:14;5.90;;;2.58;;
77591;SDS011;66891;46.884;17.436;2023-05-07T12:13:44;6.57;;;2.90;;
77591;SDS011;66891;46.884;17.436;2023-05-07T12:16:11;6.40;;;2.47;;
77591;SDS011;66891;46.884;17.436;2023-05-07T12:18:39;5.90;;;2.85;;
77591;SDS011;66891;46.884;17.436;2023-05-07T12:21:07;6.18;;;2.90;;
77591;SDS011;66891;46.884;17.436;2023-05-07T12:23:36;5.75;;;2.83;;
77591;SDS011;66891;46.884;17.436;2023-05-07T12:26:04;5.87;;;2.90;;
77591;SDS011;66891;46.884;17.436;2023-05-07T12:28:36;6.10;;;2.65;;
77591;SDS011;66891;46.884;17.436;2023-05-07T12:31:05;7.88;;;2.53;;
77591;SDS011;66891;46.884;17.436;2023-05-07T12:33:33;6.40;;;2.97;;
77591;SDS011;66891;46.884;17.436;2023-05-07T12:36:03;5.97;;;3.10;;
77591;SDS011;66891;46.884;17.436;2023-05-07T12:38:34;5.70;;;2.90;;
77591;SDS011;66891;46.884;17.436;2023-05-07T12:41:04;6.63;;;2.90;;
77591;SDS011;66891;46.884;17.436;2023-05-07T12:43:33;6.18;;;2.30;;
77591;SDS011;66891;46.884;17.436;2023-05-07T12:46:01;5.72;;;2.67;;
77591;SDS011;66891;46.884;17.436;2023-05-07T12:48:31;7.43;;;2.45;;
77591;SDS011;66891;46.884;17.436;2023-05-07T12:50:59;5.60;;;2.47;;
77591;SDS011;66891;46.884;17.436;2023-05-07T12:53:28;6.07;;;2.78;;
77591;SDS011;66891;46.884;17.436;2023-05-07T12:55:58;5.75;;;2.70;;
77591;SDS011;66891;46.884;17.436;2023-05-07T12:58:26;5.68;;;2.55;;
77591;SDS011;66891;46.884;17.436;2023-05-07T13:01:00;5.70;;;2.92;;
77591;SDS011;66891;46.884;17.436;2023-05-07T13:03:33;5.50;;;2.70;;
77591;SDS011;66891;46.884;17.436;2023-05-07T13:06:02;6.13;;;2.83;;
77591;SDS011;66891;46.884;17.436;2023-05-07T13:08:30;6.63;;;2.30;;
77591;SDS011;66891;46.884;17.436;2023-05-07T13:11:01;6.07;;;2.67;;
77591;SDS011;66891;46.884;17.436;2023-05-07T13:13:30;5.93;;;2.28;;
77591;SDS011;66891;46.884;17.436;2023-05-07T13:15:58;5.80;;;2.80;;
77591;SDS011;66891;46.884;17.436;2023-05-07T13:18:27;6.53;;;2.80;;
77591;SDS011;66891;46.884;17.436;2023-05-07T13:20:56;5.80;;;2.90;;
77591;SDS011;66891;46.884;17.436;2023-05-07T13:23:23;5.85;;;2.97;;
77591;SDS011;66891;46.884;17.436;2023-05-07T13:25:51;6.18;;;2.45;;
77591;SDS011;66891;46.884;17.436;2023-05-07T13:28:24;6.47;;;2.37;;
77591;SDS011;66891;46.884;17.436;2023-05-07T13:30:53;7.22;;;2.60;;
77591;SDS011;66891;46.884;17.436;2023-05-07T13:33:21;5.97;;;2.80;;
77591;SDS011;66891;46.884;17.436;2023-05-07T13:35:48;5.93;;;2.97;;
77591;SDS011;66891;46.884;17.436;2023-05-07T13:38:16;5.63;;;2.60;;
77591;SDS011;66891;46.884;17.436;2023-05-07T13:40:43;6.30;;;2.97;;
77591;SDS011;66891;46.884;17.436;2023-05-07T13:43:10;6.03;;;3.10;;
77591;SDS011;66891;46.884;17.436;2023-05-07T13:45:39;5.60;;;2.55;;
77591;SDS011;66891;46.884;17.436;2023-05-07T13:48:06;5.85;;;2.13;;
77591;SDS011;66891;46.884;17.436;2023-05-07T13:50:34;5.50;;;2.47;;
77591;SDS011;66891;46.884;17.436;2023-05-07T13:53:02;6.17;;;2.50;;
77591;SDS011;66891;46.884;17.436;2023-05-07T13:55:29;6.93;;;3.00;;
77591;SDS011;66891;46.884;17.436;2023-05-07T13:57:57;6.53;;;3.10;;
77591;SDS011;66891;46.884;17.436;2023-05-07T14:00:25;5.68;;;2.45;;
77591;SDS011;66891;46.884;17.436;2023-05-07T14:02:55;5.68;;;2.60;;
77591;SDS011;66891;46.884;17.436;2023-05-07T14:05:23;6.57;;;2.70;;
77591;SDS011;66891;46.884;17.436;2023-05-07T14:07:51;6.45;;;2.90;;
77591;SDS011;66891;46.884;17.436;2023-05-07T14:10:18;6.70;;;3.00;;
77591;SDS011;66891;46.884;17.436;2023-05-07T14:12:46;5.55;;;2.80;;
77591;SDS011;66891;46.884;17.436;2023-05-07T14:15:13;7.30;;;3.10;;
77591;SDS011;66891;46.884;17.436;2023-05-07T14:17:41;7.93;;;2.77;;
77591;SDS011;66891;46.884;17.436;2023-05-07T14:20:11;6.97;;;3.25;;
77591;SDS011;66891;46.884;17.436;2023-05-07T14:22:39;5.80;;;2.63;;
77591;SDS011;66891;46.884;17.436;2023-05-07T14:25:07;6.78;;;3.10;;
77591;SDS011;66891;46.884;17.436;2023-05-07T14:27:36;6.85;;;3.20;;
77591;SDS011;66891;46.884;17.436;2023-05-07T14:30:04;6.17;;;3.00;;
77591;SDS011;66891;46.884;17.436;2023-05-07T14:32:32;6.15;;;3.00;;
77591;SDS011;66891;46.884;17.436;2023-05-07T14:34:59;6.40;;;3.00;;
77591;SDS011;66891;46.884;17.436;2023-05-07T14:37:28;6.85;;;3.35;;
77591;SDS011;66891;46.884;17.436;2023-05-07T14:39:55;6.88;;;3.10;;